Time;durP1;ratioP1;P1;durP2;ratioP2;P2;SDS_P1;SDS_P2;PMS_P1;PMS_P2;Temp;Humidity;BMP_temperature;BMP_pressure;BME280_temperature;BME280_humidity;BME280_pressure;Samples;Min_cycle;Max_cycle;Signal;HPM_P1;HPM_P2
2021/11/26 00:00:13;;;;;;;24.20;12.90;;;1.60;92.90;;;;;;5050442;28;20229;-84
2021/11/26 00:02:40;;;;;;;25.73;14.10;;;1.70;92.60;;;;;;5042817;28;20204;-85
2021/11/26 00:05:09;;;;;;;25.70;13.53;;;1.70;92.50;;;;;;5049248;28;20206;-85
2021/11/26 00:07:36;;;;;;;25.37;13.80;;;1.80;92.30;;;;;;5045356;28;20684;-85
2021/11/26 00:10:04;;;;;;;24.03;14.10;;;1.80;92.00;;;;;;5045061;28;20580;-84
2021/11/26 00:12:32;;;;;;;27.33;14.33;;;1.70;91.80;;;;;;5044646;28;20202;-84
2021/11/26 00:15:12;;;;;;;26.17;13.43;;;1.70;92.10;;;;;;5043411;28;20206;-84
2021/11/26 00:17:48;;;;;;;25.83;14.20;;;1.70;92.20;;;;;;5043737;28;20299;-84
2021/11/26 00:20:17;;;;;;;27.67;14.33;;;1.70;92.10;;;;;;5045064;28;20562;-84
2021/11/26 00:22:44;;;;;;;30.93;14.13;;;1.70;92.10;;;;;;5051065;28;20213;-84
2021/11/26 00:25:11;;;;;;;26.33;14.00;;;1.80;92.30;;;;;;5045809;28;20213;-84
2021/11/26 00:27:38;;;;;;;28.77;13.77;;;1.70;92.50;;;;;;5049997;28;20213;-85
2021/11/26 00:30:07;;;;;;;26.50;14.37;;;1.60;92.00;;;;;;5049960;28;20202;-84
2021/11/26 00:32:34;;;;;;;25.53;13.73;;;1.60;92.60;;;;;;5049210;28;20202;-84
2021/11/26 00:35:01;;;;;;;24.97;13.47;;;1.50;92.70;;;;;;5049746;28;20214;-84
2021/11/26 00:37:29;;;;;;;26.80;14.00;;;1.60;92.70;;;;;;5049474;28;20229;-84
2021/11/26 00:39:56;;;;;;;24.80;13.53;;;1.70;92.50;;;;;;5044362;28;20209;-85
2021/11/26 00:42:23;;;;;;;42.63;23.17;;;1.70;92.30;;;;;;5047870;28;20234;-84
2021/11/26 00:44:50;;;;;;;25.60;14.10;;;1.80;93.20;;;;;;5046730;28;20228;-84
2021/11/26 00:47:17;;;;;;;26.90;14.10;;;1.80;92.90;;;;;;5041441;28;20317;-84
2021/11/26 00:49:44;;;;;;;25.63;14.90;;;1.70;92.20;;;;;;5047564;28;20570;-83
2021/11/26 00:52:11;;;;;;;30.33;15.17;;;1.70;92.70;;;;;;5054138;28;20217;-85
2021/11/26 00:54:40;;;;;;;42.50;22.53;;;1.70;92.10;;;;;;5050214;28;20202;-85
2021/11/26 00:57:08;;;;;;;34.80;18.77;;;1.80;93.30;;;;;;5047908;28;20231;-85
2021/11/26 00:59:35;;;;;;;26.23;14.43;;;1.80;93.20;;;;;;5035509;28;20214;-85
2021/11/26 01:02:02;;;;;;;25.93;14.20;;;1.70;92.60;;;;;;5041059;28;20232;-85
2021/11/26 01:04:30;;;;;;;31.00;16.47;;;1.50;92.60;;;;;;5044317;28;20202;-84
2021/11/26 01:06:57;;;;;;;32.43;18.13;;;1.60;93.00;;;;;;5043206;28;20229;-86
2021/11/26 01:09:24;;;;;;;27.90;14.00;;;1.80;93.00;;;;;;5047324;28;20552;-85
2021/11/26 01:11:52;;;;;;;25.40;13.47;;;1.90;92.50;;;;;;5044029;28;20236;-85
2021/11/26 01:14:19;;;;;;;31.63;16.20;;;1.90;92.10;;;;;;5048129;28;20229;-85
2021/11/26 01:16:47;;;;;;;34.40;16.73;;;1.80;92.80;;;;;;5052811;28;20688;-85
2021/11/26 01:19:14;;;;;;;30.43;15.07;;;1.70;93.00;;;;;;5051553;28;20194;-84
2021/11/26 01:21:41;;;;;;;30.40;15.93;;;1.90;92.90;;;;;;5050619;28;20217;-84
2021/11/26 01:24:08;;;;;;;30.90;15.87;;;1.90;92.30;;;;;;5042785;28;20201;-84
2021/11/26 01:26:35;;;;;;;28.53;14.97;;;2.00;92.40;;;;;;5052833;28;20237;-83
2021/11/26 01:29:05;;;;;;;29.80;15.53;;;2.00;92.40;;;;;;5051826;28;20289;-85
2021/11/26 01:31:35;;;;;;;32.50;16.17;;;1.80;92.20;;;;;;5048904;28;20225;-84
2021/11/26 01:34:03;;;;;;;28.90;15.70;;;1.60;92.20;;;;;;5052277;28;20206;-84
2021/11/26 01:36:30;;;;;;;30.23;15.10;;;1.60;93.30;;;;;;5044599;28;20309;-85
2021/11/26 01:38:57;;;;;;;30.60;15.33;;;1.50;93.10;;;;;;5052207;28;20194;-84
2021/11/26 01:41:24;;;;;;;29.20;14.77;;;1.50;94.30;;;;;;5051420;28;20850;-84
2021/11/26 01:43:51;;;;;;;27.97;15.23;;;1.60;93.30;;;;;;5050360;28;20217;-84
2021/11/26 01:46:19;;;;;;;26.83;14.27;;;1.40;93.00;;;;;;5047689;28;20245;-85
2021/11/26 01:48:47;;;;;;;28.80;16.00;;;1.30;93.40;;;;;;5051140;28;20565;-84
2021/11/26 01:51:14;;;;;;;27.00;14.50;;;1.40;94.30;;;;;;5053806;28;20235;-83
2021/11/26 01:53:41;;;;;;;25.70;13.83;;;1.60;93.70;;;;;;5053027;28;20190;-84
2021/11/26 01:56:09;;;;;;;31.80;16.10;;;1.80;93.20;;;;;;5043836;28;20236;-85
2021/11/26 01:58:36;;;;;;;28.10;15.17;;;2.00;93.70;;;;;;5046334;28;20194;-85
2021/11/26 02:01:04;;;;;;;27.93;14.37;;;2.10;92.60;;;;;;5049033;28;20309;-85
2021/11/26 02:03:33;;;;;;;33.57;15.83;;;1.90;92.20;;;;;;5040695;28;20638;-85
2021/11/26 02:06:00;;;;;;;31.87;15.13;;;1.60;92.50;;;;;;5044986;28;20590;-84
2021/11/26 02:08:27;;;;;;;29.97;14.83;;;1.60;92.90;;;;;;5042532;28;20637;-84
2021/11/26 02:10:54;;;;;;;32.53;16.10;;;1.50;93.20;;;;;;5046604;28;20711;-85
2021/11/26 02:13:21;;;;;;;31.43;14.93;;;1.40;93.70;;;;;;5051470;28;20852;-84
2021/11/26 02:15:49;;;;;;;29.27;14.67;;;1.10;94.30;;;;;;5054302;28;20221;-83
2021/11/26 02:18:17;;;;;;;30.33;15.10;;;1.30;94.30;;;;;;5056788;28;20206;-83
2021/11/26 02:20:46;;;;;;;28.70;14.57;;;1.50;94.30;;;;;;5055143;28;20218;-85
2021/11/26 02:23:14;;;;;;;31.90;14.70;;;1.70;94.40;;;;;;5063072;28;20307;-84
2021/11/26 02:25:42;;;;;;;27.33;14.03;;;1.90;94.40;;;;;;5051625;28;20230;-85
2021/11/26 02:28:11;;;;;;;31.07;15.30;;;2.00;93.10;;;;;;5052071;28;20214;-85
2021/11/26 02:30:39;;;;;;;32.10;15.57;;;2.00;93.20;;;;;;5047158;28;20225;-85
2021/11/26 02:33:08;;;;;;;30.13;15.10;;;1.80;92.60;;;;;;5050669;28;20206;-84
2021/11/26 02:35:36;;;;;;;28.53;15.03;;;1.80;94.20;;;;;;5045318;28;20237;-85
2021/11/26 02:38:08;;;;;;;32.30;15.23;;;1.90;93.60;;;;;;5051095;28;20279;-85
2021/11/26 02:40:37;;;;;;;32.90;15.67;;;1.90;93.80;;;;;;5046249;28;20582;-85
2021/11/26 02:43:05;;;;;;;30.33;15.33;;;2.00;93.00;;;;;;5044210;28;20259;-85
2021/11/26 02:45:32;;;;;;;29.93;15.50;;;1.80;93.20;;;;;;5050499;28;20229;-85
2021/11/26 02:48:01;;;;;;;32.53;16.20;;;1.90;93.70;;;;;;5051384;28;20202;-85
2021/11/26 02:50:29;;;;;;;29.83;15.47;;;1.90;93.00;;;;;;5051488;28;20226;-85
2021/11/26 02:52:58;;;;;;;32.70;15.47;;;1.70;93.30;;;;;;5042945;28;20202;-85
2021/11/26 02:55:29;;;;;;;32.37;15.30;;;1.70;94.50;;;;;;5049719;28;20228;-85
2021/11/26 02:57:57;;;;;;;33.27;16.17;;;1.80;94.40;;;;;;5048673;28;20237;-85
2021/11/26 03:00:26;;;;;;;34.43;15.97;;;1.60;93.60;;;;;;5050109;28;20232;-85
2021/11/26 03:02:53;;;;;;;29.87;14.83;;;1.60;94.40;;;;;;5045183;28;20202;-85
2021/11/26 03:05:20;;;;;;;30.10;15.33;;;1.60;94.40;;;;;;5038087;28;20214;-85
2021/11/26 03:07:48;;;;;;;33.80;16.03;;;1.70;94.40;;;;;;5049475;28;20248;-85
2021/11/26 03:10:17;;;;;;;35.90;16.63;;;1.80;94.40;;;;;;5048363;28;20216;-84
2021/11/26 03:12:47;;;;;;;34.67;16.43;;;1.60;93.60;;;;;;5046531;28;20297;-85
2021/11/26 03:15:15;;;;;;;34.90;16.67;;;1.50;94.30;;;;;;5045071;28;20210;-86
2021/11/26 03:17:42;;;;;;;34.27;16.20;;;1.50;94.30;;;;;;5046631;28;20712;-85
2021/11/26 03:20:10;;;;;;;34.80;16.67;;;1.50;94.30;;;;;;5045025;28;20202;-85
2021/11/26 03:22:38;;;;;;;31.53;15.87;;;1.70;94.40;;;;;;5047004;28;20206;-85
2021/11/26 03:25:06;;;;;;;33.83;16.50;;;1.90;94.70;;;;;;5048452;28;20221;-85
2021/11/26 03:27:33;;;;;;;30.60;15.13;;;1.90;93.90;;;;;;5052065;28;20209;-84
2021/11/26 03:30:02;;;;;;;30.17;14.77;;;1.90;93.50;;;;;;5047219;28;20673;-84
2021/11/26 03:32:29;;;;;;;27.63;14.60;;;1.90;93.80;;;;;;5048835;28;20218;-84
2021/11/26 03:34:56;;;;;;;30.20;14.27;;;2.00;94.00;;;;;;5048919;28;20217;-84
2021/11/26 03:37:23;;;;;;;32.17;14.57;;;2.00;93.40;;;;;;5049727;28;20230;-85
2021/11/26 03:39:50;;;;;;;26.17;13.63;;;2.00;93.20;;;;;;5040654;28;20206;-84
2021/11/26 03:42:17;;;;;;;28.13;14.07;;;2.00;92.80;;;;;;5047102;28;20564;-84
2021/11/26 03:44:44;;;;;;;27.33;14.23;;;1.90;93.40;;;;;;5043439;28;20744;-84
2021/11/26 03:47:13;;;;;;;27.97;13.17;;;1.90;93.40;;;;;;5050487;28;20238;-85
2021/11/26 03:49:41;;;;;;;26.37;13.77;;;1.90;93.10;;;;;;5047483;28;20580;-85
2021/11/26 03:52:08;;;;;;;30.43;14.27;;;1.90;93.60;;;;;;5040260;28;20716;-84
2021/11/26 03:54:35;;;;;;;27.70;13.67;;;1.90;93.50;;;;;;5047183;28;20580;-84
2021/11/26 03:57:02;;;;;;;25.97;13.60;;;1.90;93.40;;;;;;5048621;28;20238;-84
2021/11/26 03:59:29;;;;;;;28.13;13.93;;;1.90;93.00;;;;;;5044131;28;20283;-85
2021/11/26 04:01:55;;;;;;;28.13;13.67;;;1.70;92.90;;;;;;5045084;28;20225;-85
2021/11/26 04:04:24;;;;;;;28.53;14.23;;;1.90;93.60;;;;;;5049918;28;20661;-83
2021/11/26 04:06:51;;;;;;;29.70;14.17;;;1.90;93.20;;;;;;5049001;28;20235;-85
2021/11/26 04:09:18;;;;;;;31.73;13.97;;;1.90;93.40;;;;;;5046816;28;20547;-84
2021/11/26 04:11:45;;;;;;;33.00;15.27;;;1.70;93.60;;;;;;5043772;28;20740;-84
2021/11/26 04:14:13;;;;;;;32.50;14.40;;;1.70;94.10;;;;;;5048296;28;20656;-84
2021/11/26 04:16:40;;;;;;;30.17;15.03;;;1.60;93.80;;;;;;5048952;28;20229;-84
2021/11/26 04:19:07;;;;;;;33.03;15.30;;;1.40;94.50;;;;;;5048659;28;20204;-85
2021/11/26 04:21:35;;;;;;;32.50;14.83;;;1.60;95.40;;;;;;5049919;28;20222;-84
2021/11/26 04:24:03;;;;;;;35.80;17.10;;;1.60;94.90;;;;;;5047556;28;20680;-84
2021/11/26 04:26:30;;;;;;;36.30;15.93;;;1.70;94.50;;;;;;5050535;28;20229;-86
2021/11/26 04:28:59;;;;;;;34.30;16.53;;;1.60;94.40;;;;;;5049280;28;20210;-85
2021/11/26 04:31:26;;;;;;;44.30;17.70;;;1.60;94.40;;;;;;5043739;28;20708;-85
2021/11/26 04:33:54;;;;;;;38.43;17.33;;;1.50;94.30;;;;;;5047389;28;20216;-85
2021/11/26 04:36:22;;;;;;;37.13;17.17;;;1.60;94.40;;;;;;5049311;28;20224;-85
2021/11/26 04:38:50;;;;;;;36.83;17.37;;;1.60;94.70;;;;;;5049287;28;20662;-85
2021/11/26 04:41:17;;;;;;;37.77;16.83;;;1.50;94.30;;;;;;5050509;28;20308;-83
2021/11/26 04:43:44;;;;;;;40.20;16.93;;;1.50;94.80;;;;;;5048453;28;20218;-83
2021/11/26 04:46:11;;;;;;;36.70;17.00;;;1.50;95.00;;;;;;5056143;28;20236;-84
2021/11/26 04:48:38;;;;;;;38.83;17.63;;;1.60;95.20;;;;;;5047679;28;20210;-85
2021/11/26 04:51:05;;;;;;;41.57;17.13;;;1.60;94.70;;;;;;5046405;28;20572;-85
2021/11/26 04:53:32;;;;;;;44.80;18.27;;;1.80;95.00;;;;;;5047791;28;20512;-85
2021/11/26 04:56:00;;;;;;;40.30;17.43;;;1.60;94.40;;;;;;5040715;28;20225;-84
2021/11/26 04:58:32;;;;;;;40.17;17.37;;;1.70;94.50;;;;;;5044243;28;20559;-85
2021/11/26 05:00:59;;;;;;;40.30;18.23;;;1.70;94.20;;;;;;5042471;28;20233;-85
2021/11/26 05:03:26;;;;;;;41.13;18.27;;;1.40;94.30;;;;;;5044151;28;20208;-85
2021/11/26 05:05:53;;;;;;;38.90;17.90;;;1.50;94.40;;;;;;5044114;28;20233;-85
2021/11/26 05:08:21;;;;;;;41.90;17.73;;;1.40;94.70;;;;;;5044161;28;20681;-85
2021/11/26 05:10:52;;;;;;;44.93;17.70;;;1.50;95.10;;;;;;5048782;28;20320;-85
2021/11/26 05:13:21;;;;;;;41.37;18.10;;;1.40;94.50;;;;;;5041451;28;20198;-85
2021/11/26 05:15:48;;;;;;;52.53;20.13;;;1.30;95.00;;;;;;5042411;28;20232;-85
2021/11/26 05:18:15;;;;;;;48.33;19.90;;;1.20;95.10;;;;;;5048105;28;20230;-85
2021/11/26 05:20:42;;;;;;;43.83;19.00;;;1.20;95.20;;;;;;5048473;28;20595;-85
2021/11/26 05:23:10;;;;;;;41.80;17.70;;;1.20;95.60;;;;;;5039491;28;20562;-85
2021/11/26 05:25:37;;;;;;;39.60;18.20;;;1.00;95.30;;;;;;5044397;28;20232;-85
2021/11/26 05:28:04;;;;;;;46.37;17.97;;;1.10;95.90;;;;;;5051408;28;20214;-84
2021/11/26 05:30:33;;;;;;;48.73;19.27;;;1.20;96.10;;;;;;5049875;28;20221;-85
2021/11/26 05:33:01;;;;;;;46.07;20.23;;;1.30;95.40;;;;;;5047796;28;20224;-85
2021/11/26 05:35:28;;;;;;;47.07;20.17;;;1.10;95.50;;;;;;5046839;28;20550;-85
2021/11/26 05:37:55;;;;;;;50.60;19.37;;;1.20;96.00;;;;;;5047093;28;20221;-85
2021/11/26 05:40:23;;;;;;;40.70;18.30;;;1.40;95.70;;;;;;5047661;28;20205;-85
2021/11/26 05:42:50;;;;;;;44.70;19.63;;;1.30;96.30;;;;;;5046224;28;20202;-85
2021/11/26 05:45:18;;;;;;;46.10;18.70;;;1.50;95.60;;;;;;5047021;28;20202;-84
2021/11/26 05:47:47;;;;;;;45.40;18.87;;;1.50;94.50;;;;;;5046107;28;20213;-84
2021/11/26 05:50:16;;;;;;;39.80;17.70;;;1.60;95.00;;;;;;5047421;28;20214;-85
2021/11/26 05:52:44;;;;;;;42.73;18.53;;;1.60;94.50;;;;;;5042204;28;20217;-85
2021/11/26 05:55:13;;;;;;;35.80;16.73;;;1.70;94.40;;;;;;5033194;28;20205;-85
2021/11/26 05:57:41;;;;;;;33.87;16.27;;;1.50;93.90;;;;;;5035134;28;20673;-85
2021/11/26 06:00:13;;;;;;;30.83;14.60;;;1.50;94.60;;;;;;5040014;28;20221;-85
2021/11/26 06:02:40;;;;;;;30.40;14.37;;;1.40;94.10;;;;;;5039713;28;20311;-84
2021/11/26 06:05:10;;;;;;;33.67;15.83;;;1.40;93.50;;;;;;5051203;28;20229;-83
2021/11/26 06:07:37;;;;;;;29.13;15.27;;;1.50;93.60;;;;;;5042217;28;20201;-83
2021/11/26 06:10:06;;;;;;;28.50;14.20;;;1.40;93.50;;;;;;5038073;28;20554;-84
2021/11/26 06:12:32;;;;;;;30.27;15.03;;;1.40;93.20;;;;;;5038936;28;20584;-84
2021/11/26 06:15:00;;;;;;;31.77;14.40;;;1.40;93.80;;;;;;5038608;28;20210;-84
2021/11/26 06:17:27;;;;;;;29.57;13.93;;;1.40;93.90;;;;;;5038954;28;20233;-83
2021/11/26 06:19:54;;;;;;;29.63;14.40;;;1.30;93.50;;;;;;5040068;28;20651;-83
2021/11/26 06:22:22;;;;;;;31.17;14.60;;;1.30;93.80;;;;;;5044585;28;20226;-82
2021/11/26 06:24:49;;;;;;;31.77;14.37;;;1.20;93.50;;;;;;5042098;28;20198;-82
2021/11/26 06:27:16;;;;;;;31.33;14.40;;;1.20;93.70;;;;;;5041359;28;20233;-82
2021/11/26 06:29:43;;;;;;;28.17;14.67;;;1.40;94.30;;;;;;5044142;28;20195;-85
2021/11/26 06:32:10;;;;;;;30.03;13.77;;;1.50;94.30;;;;;;5045095;28;20232;-83
2021/11/26 06:34:37;;;;;;;30.77;14.30;;;1.60;93.30;;;;;;5054774;28;20562;-82
2021/11/26 06:37:04;;;;;;;28.20;13.43;;;1.70;93.60;;;;;;5049625;28;20225;-88
2021/11/26 06:39:33;;;;;;;28.47;14.00;;;1.80;93.40;;;;;;5046068;28;20202;-86
2021/11/26 06:42:01;;;;;;;25.60;12.80;;;1.60;92.80;;;;;;5040658;28;20218;-84
2021/11/26 06:44:27;;;;;;;26.27;12.50;;;1.60;93.50;;;;;;5050211;28;20234;-85
2021/11/26 06:46:54;;;;;;;28.00;12.80;;;1.60;93.10;;;;;;5053168;28;20213;-82
2021/11/26 06:49:22;;;;;;;27.97;12.70;;;1.50;93.30;;;;;;5054779;28;20260;-82
2021/11/26 06:51:49;;;;;;;26.80;12.20;;;1.50;93.70;;;;;;5041734;28;20222;-81
2021/11/26 06:54:16;;;;;;;25.50;12.00;;;1.50;94.00;;;;;;5047069;28;20197;-81
2021/11/26 06:56:44;;;;;;;24.33;12.50;;;1.60;94.40;;;;;;5045666;28;20228;-81
2021/11/26 06:59:11;;;;;;;26.70;12.73;;;1.70;94.20;;;;;;5039912;28;20218;-81
2021/11/26 07:01:38;;;;;;;27.40;13.13;;;1.80;93.80;;;;;;5040542;28;20225;-81
2021/11/26 07:04:07;;;;;;;26.20;12.20;;;1.80;93.90;;;;;;5039269;28;20208;-81
2021/11/26 07:06:34;;;;;;;23.10;12.40;;;1.80;93.80;;;;;;5044928;28;20221;-80
2021/11/26 07:09:01;;;;;;;21.57;10.87;;;1.90;93.70;;;;;;5055058;28;20264;-80
2021/11/26 07:11:28;;;;;;;24.10;10.90;;;1.90;93.00;;;;;;5065185;28;20241;-80
2021/11/26 07:13:56;;;;;;;23.07;11.27;;;2.00;93.10;;;;;;5066745;28;20198;-81
2021/11/26 07:16:23;;;;;;;19.70;11.40;;;2.00;93.10;;;;;;5053780;28;20248;-80
2021/11/26 07:18:50;;;;;;;23.13;11.30;;;2.00;92.50;;;;;;5050223;28;20234;-81
2021/11/26 07:21:17;;;;;;;21.90;10.80;;;2.00;93.60;;;;;;5053339;28;20257;-80
2021/11/26 07:23:44;;;;;;;25.27;10.83;;;2.00;93.20;;;;;;5045697;28;20206;-80
2021/11/26 07:26:11;;;;;;;27.47;12.30;;;2.10;92.90;;;;;;5045124;28;20306;-81
2021/11/26 07:28:38;;;;;;;23.27;11.90;;;2.10;92.60;;;;;;5045727;28;20202;-81
2021/11/26 07:31:08;;;;;;;24.03;12.53;;;2.10;93.10;;;;;;5047058;28;20239;-80
2021/11/26 07:33:35;;;;;;;21.80;11.47;;;2.00;92.80;;;;;;5046856;28;20202;-81
2021/11/26 07:36:03;;;;;;;26.07;11.00;;;1.90;93.60;;;;;;5046731;28;20229;-80
2021/11/26 07:38:30;;;;;;;22.07;10.80;;;2.10;93.30;;;;;;5045007;28;20218;-81
2021/11/26 07:40:57;;;;;;;22.00;10.83;;;2.10;92.90;;;;;;5042496;28;20233;-81
2021/11/26 07:43:24;;;;;;;22.50;10.90;;;2.20;92.50;;;;;;5044882;28;20226;-81
2021/11/26 07:45:51;;;;;;;23.17;11.43;;;2.20;92.20;;;;;;5026695;28;20226;-81
2021/11/26 07:48:19;;;;;;;23.50;11.70;;;2.30;92.20;;;;;;5040102;28;20209;-82
2021/11/26 07:50:47;;;;;;;22.67;11.03;;;2.30;92.10;;;;;;5042441;28;20241;-84
2021/11/26 07:53:14;;;;;;;22.80;10.77;;;2.40;92.00;;;;;;5044684;28;20207;-83
2021/11/26 07:55:41;;;;;;;23.80;11.43;;;2.40;92.00;;;;;;5043692;28;20732;-82
2021/11/26 07:58:09;;;;;;;21.67;10.50;;;2.40;91.80;;;;;;5049937;28;20703;-83
2021/11/26 08:00:37;;;;;;;20.43;10.07;;;2.40;91.70;;;;;;5048297;28;20221;-83
2021/11/26 08:03:06;;;;;;;19.97;10.33;;;2.50;91.70;;;;;;5050570;28;20669;-83
2021/11/26 08:05:35;;;;;;;20.43;10.53;;;2.50;91.80;;;;;;5050933;28;20633;-82
2021/11/26 08:08:08;;;;;;;23.03;11.07;;;2.40;91.60;;;;;;5049842;28;20226;-84
2021/11/26 08:10:36;;;;;;;17.33;9.20;;;2.40;91.60;;;;;;5047842;28;20225;-85
2021/11/26 08:13:03;;;;;;;21.77;9.83;;;2.40;91.40;;;;;;5050491;28;20198;-83
2021/11/26 08:15:31;;;;;;;20.40;10.10;;;2.50;91.30;;;;;;5045747;28;20236;-85
2021/11/26 08:17:58;;;;;;;19.67;10.20;;;2.40;91.30;;;;;;5046303;28;20228;-84
2021/11/26 08:20:26;;;;;;;20.07;10.57;;;2.50;91.50;;;;;;5049644;28;20209;-85
2021/11/26 08:22:55;;;;;;;20.50;10.93;;;2.50;91.30;;;;;;5049940;28;20205;-85
2021/11/26 08:25:26;;;;;;;22.90;10.93;;;2.50;90.80;;;;;;5051305;28;20205;-84
2021/11/26 08:27:55;;;;;;;23.53;11.77;;;2.30;90.50;;;;;;5050595;28;20205;-84
2021/11/26 08:30:24;;;;;;;20.97;11.00;;;2.10;91.40;;;;;;5048733;28;20645;-84
2021/11/26 08:32:53;;;;;;;21.53;11.23;;;2.20;92.30;;;;;;5049456;28;20201;-85
2021/11/26 08:35:20;;;;;;;23.53;11.53;;;2.30;92.00;;;;;;5042387;28;20206;-84
2021/11/26 08:37:48;;;;;;;22.40;11.33;;;2.30;91.40;;;;;;5043650;28;20646;-84
2021/11/26 08:40:16;;;;;;;21.57;11.00;;;2.40;91.80;;;;;;5051622;28;20194;-84
2021/11/26 08:42:44;;;;;;;22.50;11.60;;;2.20;91.60;;;;;;5046913;28;20210;-84
2021/11/26 08:45:12;;;;;;;22.27;11.63;;;2.10;92.40;;;;;;5045170;28;20229;-84
2021/11/26 08:47:40;;;;;;;24.57;11.60;;;2.10;91.80;;;;;;5050420;28;20228;-84
2021/11/26 08:50:12;;;;;;;26.43;11.67;;;2.10;92.10;;;;;;5043103;28;20198;-84
2021/11/26 08:52:39;;;;;;;25.23;11.63;;;2.10;91.80;;;;;;5049039;28;20210;-84
2021/11/26 08:55:11;;;;;;;25.10;11.97;;;2.20;91.50;;;;;;5051284;28;20208;-84
2021/11/26 08:57:42;;;;;;;26.13;12.70;;;2.10;91.20;;;;;;5048624;28;20236;-84
2021/11/26 09:00:11;;;;;;;25.00;12.73;;;2.10;91.70;;;;;;5042201;28;20213;-84
2021/11/26 09:02:38;;;;;;;30.20;15.93;;;2.10;91.40;;;;;;5049879;28;20201;-84
2021/11/26 09:05:06;;;;;;;54.03;26.93;;;2.20;91.50;;;;;;5047040;28;20571;-83
2021/11/26 09:07:33;;;;;;;27.77;14.23;;;2.40;91.70;;;;;;5046287;28;20224;-84
2021/11/26 09:10:00;;;;;;;31.00;15.67;;;2.30;90.90;;;;;;5049133;28;20205;-85
2021/11/26 09:12:29;;;;;;;32.20;17.47;;;2.30;91.40;;;;;;5044531;28;20219;-84
2021/11/26 09:14:58;;;;;;;33.87;16.87;;;2.30;91.20;;;;;;5044336;28;20218;-84
2021/11/26 09:17:25;;;;;;;32.20;15.30;;;2.40;91.10;;;;;;5049143;28;20224;-83
2021/11/26 09:19:52;;;;;;;41.03;21.37;;;2.30;91.10;;;;;;5042873;28;20217;-83
2021/11/26 09:22:19;;;;;;;35.50;15.53;;;2.20;92.10;;;;;;5050176;28;20585;-84
2021/11/26 09:24:46;;;;;;;31.63;15.20;;;2.10;91.60;;;;;;5051556;28;20676;-83
2021/11/26 09:27:13;;;;;;;34.60;16.23;;;2.10;91.80;;;;;;5047071;28;20223;-83
2021/11/26 09:29:44;;;;;;;31.93;15.77;;;1.90;91.70;;;;;;5048795;28;20212;-84
2021/11/26 09:32:13;;;;;;;32.73;15.57;;;2.00;92.70;;;;;;5048862;28;20283;-84
2021/11/26 09:34:40;;;;;;;34.97;15.87;;;1.90;92.70;;;;;;5049399;28;20221;-82
2021/11/26 09:37:07;;;;;;;30.03;15.50;;;2.00;92.80;;;;;;5055278;28;20234;-83
2021/11/26 09:39:35;;;;;;;32.13;15.80;;;2.10;93.00;;;;;;5062234;28;20238;-84
2021/11/26 09:42:02;;;;;;;34.20;15.83;;;2.30;93.40;;;;;;5049754;28;20221;-84
2021/11/26 09:44:33;;;;;;;29.33;14.67;;;2.30;92.00;;;;;;5051745;28;20218;-83
2021/11/26 09:47:00;;;;;;;32.47;14.53;;;2.20;92.10;;;;;;5051326;28;20237;-83
2021/11/26 09:49:29;;;;;;;36.50;16.73;;;2.10;91.80;;;;;;5047640;28;20206;-84
2021/11/26 09:51:57;;;;;;;36.03;15.50;;;2.20;92.90;;;;;;5049864;28;20225;-84
2021/11/26 09:54:24;;;;;;;31.07;14.63;;;2.40;92.60;;;;;;5046709;28;20198;-85
2021/11/26 09:56:52;;;;;;;32.50;15.13;;;2.70;91.20;;;;;;5043438;28;20590;-85
2021/11/26 09:59:19;;;;;;;31.23;13.93;;;3.00;91.00;;;;;;5050636;28;20697;-84
2021/11/26 10:01:46;;;;;;;31.23;14.73;;;3.10;88.40;;;;;;5050239;28;20930;-85
2021/11/26 10:04:18;;;;;;;29.03;13.60;;;3.00;87.70;;;;;;5051151;28;20201;-85
2021/11/26 10:06:47;;;;;;;28.73;13.70;;;3.20;88.70;;;;;;5043658;28;20226;-86
2021/11/26 10:09:16;;;;;;;30.13;14.17;;;3.10;87.80;;;;;;5051618;28;20205;-84
2021/11/26 10:11:47;;;;;;;30.03;14.27;;;3.10;86.00;;;;;;5046984;28;20228;-84
2021/11/26 10:14:16;;;;;;;28.57;14.00;;;2.90;87.70;;;;;;5045395;28;20210;-85
2021/11/26 10:16:45;;;;;;;25.87;13.23;;;2.80;89.30;;;;;;5048368;28;20224;-85
2021/11/26 10:19:12;;;;;;;27.67;13.67;;;2.50;87.40;;;;;;5047427;28;20249;-84
2021/11/26 10:21:39;;;;;;;23.30;11.80;;;2.50;87.90;;;;;;5047544;28;20238;-85
2021/11/26 10:24:14;;;;;;;29.80;13.27;;;2.40;90.30;;;;;;5045063;28;20198;-84
2021/11/26 10:26:50;;;;;;;22.10;12.00;;;2.90;90.20;;;;;;5047480;28;20221;-84
2021/11/26 10:29:17;;;;;;;27.67;13.33;;;3.10;87.80;;;;;;5045439;28;20208;-84
2021/11/26 10:31:44;;;;;;;24.07;12.57;;;3.10;87.00;;;;;;5053540;28;20222;-85
2021/11/26 10:34:11;;;;;;;25.03;12.80;;;3.40;86.50;;;;;;5054538;28;20216;-85
2021/11/26 10:36:46;;;;;;;30.30;13.30;;;3.60;83.90;;;;;;5054297;28;20237;-85
2021/11/26 10:39:17;;;;;;;28.77;13.60;;;3.20;84.90;;;;;;5051331;28;20240;-83
2021/11/26 10:41:49;;;;;;;26.77;12.07;;;3.20;86.50;;;;;;5040630;28;20222;-84
2021/11/26 10:44:19;;;;;;;20.00;11.03;;;3.40;86.80;;;;;;5048145;28;20656;-84
2021/11/26 10:46:59;;;;;;;21.70;11.17;;;3.20;83.40;;;;;;5044159;28;20617;-84
2021/11/26 10:49:39;;;;;;;21.53;11.37;;;3.00;85.30;;;;;;5051360;28;20194;-83
2021/11/26 11:01:02;;;;;;;21.40;11.30;;;3.30;86.20;;;;;;5081154;28;20225;-85
2021/11/26 11:03:29;;;;;;;21.33;10.23;;;3.50;82.60;;;;;;5070644;28;20201;-84
2021/11/26 11:05:57;;;;;;;24.37;11.63;;;3.60;82.70;;;;;;5072449;28;20237;-85
2021/11/26 11:08:25;;;;;;;21.40;10.77;;;3.40;83.60;;;;;;5067869;28;20205;-85
2021/11/26 11:10:55;;;;;;;20.03;10.87;;;3.40;84.30;;;;;;5073797;28;20228;-84
2021/11/26 11:13:27;;;;;;;20.43;11.13;;;3.40;84.00;;;;;;5087376;28;20246;-83
2021/11/26 11:16:04;;;;;;;23.40;11.60;;;3.60;83.40;;;;;;5092404;28;20225;-84
2021/11/26 11:18:33;;;;;;;21.50;11.53;;;3.40;84.00;;;;;;5088908;28;20195;-83
2021/11/26 11:21:01;;;;;;;22.00;10.87;;;3.40;84.20;;;;;;5087216;28;20220;-84
2021/11/26 11:23:28;;;;;;;21.00;11.10;;;3.30;84.00;;;;;;5088549;28;20564;-84
2021/11/26 11:25:59;;;;;;;22.23;11.20;;;3.30;85.70;;;;;;5079929;28;20232;-83
2021/11/26 11:28:27;;;;;;;21.47;11.17;;;3.40;83.00;;;;;;5063441;28;20205;-84
2021/11/26 11:30:55;;;;;;;23.20;11.30;;;3.40;84.30;;;;;;5066188;28;20593;-84
2021/11/26 11:33:23;;;;;;;22.37;10.80;;;3.20;86.00;;;;;;5070487;28;20232;-85
2021/11/26 11:35:51;;;;;;;23.73;11.50;;;3.10;85.50;;;;;;5067503;28;20240;-84
2021/11/26 11:38:19;;;;;;;20.73;10.60;;;3.00;87.20;;;;;;5067498;28;20566;-85
2021/11/26 11:40:48;;;;;;;25.47;12.20;;;3.00;87.70;;;;;;5070641;28;20222;-85
2021/11/26 11:43:19;;;;;;;25.13;11.53;;;3.10;86.00;;;;;;5070129;28;20219;-85
2021/11/26 11:45:56;;;;;;;20.07;10.97;;;3.00;87.70;;;;;;5075310;28;20217;-88
2021/11/26 11:48:29;;;;;;;21.90;11.27;;;2.70;87.50;;;;;;5095699;28;20746;-84
2021/11/26 11:50:56;;;;;;;20.20;10.70;;;2.70;89.40;;;;;;5085139;28;21575;-85
2021/11/26 11:53:31;;;;;;;20.30;10.43;;;2.80;87.60;;;;;;5085310;28;20644;-85
2021/11/26 11:56:08;;;;;;;20.10;10.47;;;2.80;89.10;;;;;;5087160;28;20212;-85
2021/11/26 11:58:49;;;;;;;20.23;10.13;;;2.90;87.70;;;;;;5092804;28;20208;-85
2021/11/26 12:01:26;;;;;;;19.80;10.30;;;3.00;87.70;;;;;;5095922;28;20225;-85
2021/11/26 12:04:01;;;;;;;21.80;10.70;;;2.90;87.70;;;;;;5091671;28;20200;-86
2021/11/26 12:06:38;;;;;;;18.00;9.67;;;2.60;89.30;;;;;;5081956;28;20224;-85
2021/11/26 12:09:05;;;;;;;21.53;11.00;;;2.50;90.30;;;;;;5080880;28;20208;-86
2021/11/26 12:11:35;;;;;;;22.43;11.57;;;2.60;90.30;;;;;;5069801;28;20224;-87
2021/11/26 12:14:08;;;;;;;20.07;11.00;;;2.60;90.80;;;;;;5080342;28;20225;-85
2021/11/26 12:16:46;;;;;;;22.57;11.03;;;2.40;90.10;;;;;;5060922;28;20226;-84
2021/11/26 12:19:23;;;;;;;21.17;10.03;;;2.50;90.20;;;;;;5060161;28;20212;-86
2021/11/26 12:21:52;;;;;;;19.43;9.83;;;2.40;89.50;;;;;;5056216;28;20221;-87
2021/11/26 12:24:25;;;;;;;23.23;11.13;;;2.50;90.30;;;;;;5054888;28;20201;-86
2021/11/26 12:26:57;;;;;;;19.23;11.27;;;2.70;90.00;;;;;;5052765;28;20229;-87
2021/11/26 12:29:37;;;;;;;22.00;10.97;;;2.70;88.80;;;;;;5052155;28;20201;-86
2021/11/26 12:32:09;;;;;;;17.83;10.00;;;2.60;89.00;;;;;;5057544;28;20275;-88
2021/11/26 12:34:42;;;;;;;20.90;9.97;;;2.50;90.20;;;;;;5056505;28;20221;-87
2021/11/26 12:37:19;;;;;;;21.30;11.07;;;2.50;90.20;;;;;;5058643;28;20231;-85
2021/11/26 12:39:47;;;;;;;23.23;11.33;;;2.40;90.20;;;;;;5056493;28;20201;-86
2021/11/26 12:42:15;;;;;;;20.17;10.70;;;2.50;90.00;;;;;;5066378;28;20223;-85
2021/11/26 12:44:43;;;;;;;19.87;10.07;;;2.40;90.30;;;;;;5075112;28;20218;-85
2021/11/26 12:47:14;;;;;;;19.80;10.90;;;2.60;90.30;;;;;;5053658;28;20230;-84
2021/11/26 12:52:25;;;;;;;19.93;10.53;;;2.50;90.40;;;;;;5059021;28;20251;-85
2021/11/26 12:54:55;;;;;;;19.67;10.40;;;2.50;89.50;;;;;;5055000;28;20222;-85